sensor_id;sensor_type;location;lat;lon;timestamp;pressure;altitude;pressure_sealevel;temperature;humidity
1776;BME280;885;42.626;23.200;2023-04-25T00:01:32;167982.03;;;10.41;100.00
1776;BME280;885;42.626;23.200;2023-04-25T00:04:03;167987.56;;;10.43;100.00
1776;BME280;885;42.626;23.200;2023-04-25T00:06:31;167972.41;;;10.37;100.00
1776;BME280;885;42.626;23.200;2023-04-25T00:08:58;167990.34;;;10.44;100.00
1776;BME280;885;42.626;23.200;2023-04-25T00:11:24;167987.56;;;10.43;100.00
1776;BME280;885;42.626;23.200;2023-04-25T00:13:51;167993.13;;;10.45;100.00
1776;BME280;885;42.626;23.200;2023-04-25T00:16:18;168001.34;;;10.48;100.00
1776;BME280;885;42.626;23.200;2023-04-25T00:18:45;167993.13;;;10.45;100.00
1776;BME280;885;42.626;23.200;2023-04-25T00:21:18;167933.81;;;10.23;100.00
1776;BME280;885;42.626;23.200;2023-04-25T00:23:45;167928.28;;;10.21;100.00
1776;BME280;885;42.626;23.200;2023-04-25T00:26:12;167885.47;;;10.06;100.00
1776;BME280;885;42.626;23.200;2023-04-25T00:28:39;167896.50;;;10.10;100.00
1776;BME280;885;42.626;23.200;2023-04-25T00:31:06;167929.69;;;10.22;100.00
1776;BME280;885;42.626;23.200;2023-04-25T00:33:32;167824.84;;;9.84;100.00
1776;BME280;885;42.626;23.200;2023-04-25T00:36:00;167779.34;;;9.67;100.00
1776;BME280;885;42.626;23.200;2023-04-25T00:38:28;167802.78;;;9.76;100.00
1776;BME280;885;42.626;23.200;2023-04-25T00:40:55;167783.47;;;9.69;100.00
1776;BME280;885;42.626;23.200;2023-04-25T00:43:23;167815.22;;;9.80;100.00
1776;BME280;885;42.626;23.200;2023-04-25T00:45:52;167817.94;;;9.81;100.00
1776;BME280;885;42.626;23.200;2023-04-25T00:48:21;167802.78;;;9.76;100.00
1776;BME280;885;42.626;23.200;2023-04-25T00:50:51;167846.88;;;9.92;100.00
1776;BME280;885;42.626;23.200;2023-04-25T00:53:18;167863.44;;;9.98;100.00
1776;BME280;885;42.626;23.200;2023-04-25T00:55:47;167834.47;;;9.87;100.00
1776;BME280;885;42.626;23.200;2023-04-25T00:58:16;167801.41;;;9.75;100.00
1776;BME280;885;42.626;23.200;2023-04-25T01:00:44;167844.09;;;9.91;100.00
1776;BME280;885;42.626;23.200;2023-04-25T01:03:12;167835.88;;;9.88;100.00
1776;BME280;885;42.626;23.200;2023-04-25T01:05:39;167884.13;;;10.05;100.00
1776;BME280;885;42.626;23.200;2023-04-25T01:08:12;167895.16;;;10.09;100.00
1776;BME280;885;42.626;23.200;2023-04-25T01:10:39;167937.94;;;10.25;100.00
1776;BME280;885;42.626;23.200;2023-04-25T01:13:07;167954.47;;;10.31;100.00
1776;BME280;885;42.626;23.200;2023-04-25T01:15:34;167924.16;;;10.20;100.00
1776;BME280;885;42.626;23.200;2023-04-25T01:18:02;167893.75;;;10.09;100.00
1776;BME280;885;42.626;23.200;2023-04-25T01:20:30;167877.22;;;10.03;100.00
1776;BME280;885;42.626;23.200;2023-04-25T01:22:59;167863.44;;;9.98;100.00
1776;BME280;885;42.626;23.200;2023-04-25T01:25:27;167822.06;;;9.83;100.00
1776;BME280;885;42.626;23.200;2023-04-25T01:27:54;167812.41;;;9.79;100.00
1776;BME280;885;42.626;23.200;2023-04-25T01:30:21;167811.03;;;9.79;100.00
1776;BME280;885;42.626;23.200;2023-04-25T01:32:49;167824.84;;;9.84;100.00
1776;BME280;885;42.626;23.200;2023-04-25T01:35:16;167820.72;;;9.82;100.00
1776;BME280;885;42.626;23.200;2023-04-25T01:37:43;167816.53;;;9.81;100.00
1776;BME280;885;42.626;23.200;2023-04-25T01:40:11;167791.78;;;9.72;100.00
1776;BME280;885;42.626;23.200;2023-04-25T01:42:40;167751.81;;;9.57;100.00
1776;BME280;885;42.626;23.200;2023-04-25T01:45:09;167777.97;;;9.67;100.00
1776;BME280;885;42.626;23.200;2023-04-25T01:47:36;167811.03;;;9.79;100.00
1776;BME280;885;42.626;23.200;2023-04-25T01:50:03;167824.84;;;9.84;100.00
1776;BME280;885;42.626;23.200;2023-04-25T01:52:30;167786.25;;;9.70;100.00
1776;BME280;885;42.626;23.200;2023-04-25T01:54:59;167806.91;;;9.77;100.00
1776;BME280;885;42.626;23.200;2023-04-25T01:57:29;167838.59;;;9.89;100.00
1776;BME280;885;42.626;23.200;2023-04-25T01:59:58;167828.97;;;9.85;100.00
1776;BME280;885;42.626;23.200;2023-04-25T02:02:25;167896.50;;;10.10;100.00
1776;BME280;885;42.626;23.200;2023-04-25T02:04:52;167913.09;;;10.16;100.00
1776;BME280;885;42.626;23.200;2023-04-25T02:07:19;167921.38;;;10.19;100.00
1776;BME280;885;42.626;23.200;2023-04-25T02:09:46;167951.75;;;10.30;100.00
1776;BME280;885;42.626;23.200;2023-04-25T02:12:13;167990.34;;;10.44;100.00
1776;BME280;885;42.626;23.200;2023-04-25T02:14:41;168005.47;;;10.50;100.00
1776;BME280;885;42.626;23.200;2023-04-25T02:17:08;167997.25;;;10.47;100.00
1776;BME280;885;42.626;23.200;2023-04-25T02:19:35;167973.78;;;10.38;100.00
1776;BME280;885;42.626;23.200;2023-04-25T02:22:02;167998.63;;;10.47;100.00
1776;BME280;885;42.626;23.200;2023-04-25T02:24:28;168020.69;;;10.55;100.00
1776;BME280;885;42.626;23.200;2023-04-25T02:26:55;167995.84;;;10.46;100.00
1776;BME280;885;42.626;23.200;2023-04-25T02:29:23;168019.31;;;10.55;100.00
1776;BME280;885;42.626;23.200;2023-04-25T02:31:51;167986.22;;;10.43;100.00
1776;BME280;885;42.626;23.200;2023-04-25T02:34:18;167993.13;;;10.45;100.00
1776;BME280;885;42.626;23.200;2023-04-25T02:36:45;167987.56;;;10.43;100.00
1776;BME280;885;42.626;23.200;2023-04-25T02:39:12;167948.94;;;10.29;100.00
1776;BME280;885;42.626;23.200;2023-04-25T02:41:38;167987.56;;;10.43;100.00
1776;BME280;885;42.626;23.200;2023-04-25T02:44:05;167957.25;;;10.32;100.00
1776;BME280;885;42.626;23.200;2023-04-25T02:46:32;167946.22;;;10.28;100.00
1776;BME280;885;42.626;23.200;2023-04-25T02:49:00;167932.41;;;10.23;100.00
1776;BME280;885;42.626;23.200;2023-04-25T02:51:27;167954.47;;;10.31;100.00
1776;BME280;885;42.626;23.200;2023-04-25T02:53:53;168001.34;;;10.48;100.00
1776;BME280;885;42.626;23.200;2023-04-25T02:56:20;167951.75;;;10.30;100.00
1776;BME280;885;42.626;23.200;2023-04-25T02:58:47;167951.75;;;10.30;100.00
1776;BME280;885;42.626;23.200;2023-04-25T03:01:13;167918.66;;;10.18;100.00
1776;BME280;885;42.626;23.200;2023-04-25T03:03:40;167948.94;;;10.29;100.00
1776;BME280;885;42.626;23.200;2023-04-25T03:06:08;167937.94;;;10.25;100.00
1776;BME280;885;42.626;23.200;2023-04-25T03:08:35;167971.00;;;10.37;100.00
1776;BME280;885;42.626;23.200;2023-04-25T03:11:02;167947.56;;;10.28;100.00
1776;BME280;885;42.626;23.200;2023-04-25T03:13:29;168015.16;;;10.53;100.00
1776;BME280;885;42.626;23.200;2023-04-25T03:15:55;167982.03;;;10.41;100.00
1776;BME280;885;42.626;23.200;2023-04-25T03:18:22;167988.94;;;10.44;100.00
1776;BME280;885;42.626;23.200;2023-04-25T03:20:49;168002.75;;;10.49;100.00
1776;BME280;885;42.626;23.200;2023-04-25T03:23:17;167976.53;;;10.39;100.00
1776;BME280;885;42.626;23.200;2023-04-25T03:25:44;167993.13;;;10.45;100.00
1776;BME280;885;42.626;23.200;2023-04-25T03:28:10;167990.34;;;10.44;100.00
1776;BME280;885;42.626;23.200;2023-04-25T03:30:37;167986.22;;;10.43;100.00
1776;BME280;885;42.626;23.200;2023-04-25T03:33:04;167973.78;;;10.38;100.00
1776;BME280;885;42.626;23.200;2023-04-25T03:35:31;167975.19;;;10.38;100.00
1776;BME280;885;42.626;23.200;2023-04-25T03:37:58;167977.91;;;10.39;100.00
1776;BME280;885;42.626;23.200;2023-04-25T03:40:26;167986.22;;;10.43;100.00
1776;BME280;885;42.626;23.200;2023-04-25T03:42:52;167969.66;;;10.36;100.00
1776;BME280;885;42.626;23.200;2023-04-25T03:45:19;168020.69;;;10.55;100.00
1776;BME280;885;42.626;23.200;2023-04-25T03:47:46;168008.25;;;10.51;100.00
1776;BME280;885;42.626;23.200;2023-04-25T03:50:13;168019.31;;;10.55;100.00
1776;BME280;885;42.626;23.200;2023-04-25T03:52:39;168017.91;;;10.54;100.00
1776;BME280;885;42.626;23.200;2023-04-25T03:55:07;168034.44;;;10.60;100.00
1776;BME280;885;42.626;23.200;2023-04-25T03:57:35;168073.09;;;10.74;100.00
1776;BME280;885;42.626;23.200;2023-04-25T04:00:02;168070.31;;;10.73;100.00
1776;BME280;885;42.626;23.200;2023-04-25T04:02:31;168078.63;;;10.76;100.00
1776;BME280;885;42.626;23.200;2023-04-25T04:04:58;168038.63;;;10.62;100.00
1776;BME280;885;42.626;23.200;2023-04-25T04:07:25;168092.38;;;10.81;100.00
1776;BME280;885;42.626;23.200;2023-04-25T04:09:51;168015.16;;;10.53;100.00
1776;BME280;885;42.626;23.200;2023-04-25T04:12:18;168039.97;;;10.62;100.00
1776;BME280;885;42.626;23.200;2023-04-25T04:14:46;167984.81;;;10.42;100.00
1776;BME280;885;42.626;23.200;2023-04-25T04:17:13;168034.44;;;10.60;100.00
1776;BME280;885;42.626;23.200;2023-04-25T04:19:40;168042.75;;;10.63;100.00
1776;BME280;885;42.626;23.200;2023-04-25T04:22:06;168031.72;;;10.59;100.00
1776;BME280;885;42.626;23.200;2023-04-25T04:24:33;168045.47;;;10.64;100.00
1776;BME280;885;42.626;23.200;2023-04-25T04:27:00;168017.91;;;10.54;100.00
1776;BME280;885;42.626;23.200;2023-04-25T04:29:27;167987.56;;;10.43;100.00
1776;BME280;885;42.626;23.200;2023-04-25T04:31:55;167962.75;;;10.34;100.00
1776;BME280;885;42.626;23.200;2023-04-25T04:34:22;167969.66;;;10.36;100.00
1776;BME280;885;42.626;23.200;2023-04-25T04:36:50;168001.34;;;10.48;100.00
1776;BME280;885;42.626;23.200;2023-04-25T04:39:16;167976.53;;;10.39;100.00
1776;BME280;885;42.626;23.200;2023-04-25T04:41:43;167953.13;;;10.30;100.00
1776;BME280;885;42.626;23.200;2023-04-25T04:44:10;167993.13;;;10.45;100.00
1776;BME280;885;42.626;23.200;2023-04-25T04:46:37;168016.50;;;10.54;100.00
1776;BME280;885;42.626;23.200;2023-04-25T04:49:08;167986.22;;;10.43;100.00
1776;BME280;885;42.626;23.200;2023-04-25T04:51:35;168012.41;;;10.52;100.00
1776;BME280;885;42.626;23.200;2023-04-25T04:54:02;167988.94;;;10.44;100.00
1776;BME280;885;42.626;23.200;2023-04-25T04:56:29;167987.56;;;10.43;100.00
1776;BME280;885;42.626;23.200;2023-04-25T04:58:57;167951.75;;;10.30;100.00
1776;BME280;885;42.626;23.200;2023-04-25T05:01:24;167975.19;;;10.38;100.00
1776;BME280;885;42.626;23.200;2023-04-25T05:03:51;167976.53;;;10.39;100.00
1776;BME280;885;42.626;23.200;2023-04-25T05:06:19;168023.41;;;10.56;100.00
1776;BME280;885;42.626;23.200;2023-04-25T05:08:46;168085.47;;;10.79;100.00
1776;BME280;885;42.626;23.200;2023-04-25T05:11:13;168107.59;;;10.87;100.00
1776;BME280;885;42.626;23.200;2023-04-25T05:13:39;168001.34;;;10.48;100.00
1776;BME280;885;42.626;23.200;2023-04-25T05:16:06;168006.88;;;10.50;100.00
1776;BME280;885;42.626;23.200;2023-04-25T05:18:33;168041.34;;;10.63;100.00
1776;BME280;885;42.626;23.200;2023-04-25T05:21:00;168033.13;;;10.60;100.00
1776;BME280;885;42.626;23.200;2023-04-25T05:23:28;168045.47;;;10.64;100.00
1776;BME280;885;42.626;23.200;2023-04-25T05:25:56;168031.72;;;10.59;100.00
1776;BME280;885;42.626;23.200;2023-04-25T05:28:23;168044.13;;;10.64;100.00
1776;BME280;885;42.626;23.200;2023-04-25T05:30:50;168097.91;;;10.83;100.00
1776;BME280;885;42.626;23.200;2023-04-25T05:33:16;168104.81;;;10.86;100.00
1776;BME280;885;42.626;23.200;2023-04-25T05:35:43;168121.34;;;10.92;100.00
1776;BME280;885;42.626;23.200;2023-04-25T05:38:10;168139.31;;;10.98;100.00
1776;BME280;885;42.626;23.200;2023-04-25T05:40:38;168142.09;;;10.99;100.00
1776;BME280;885;42.626;23.200;2023-04-25T05:43:05;168157.25;;;11.05;100.00
1776;BME280;885;42.626;23.200;2023-04-25T05:45:32;168180.69;;;11.13;100.00
1776;BME280;885;42.626;23.200;2023-04-25T05:47:59;168222.09;;;11.29;100.00
1776;BME280;885;42.626;23.200;2023-04-25T05:50:26;168144.81;;;11.00;100.00
1776;BME280;885;42.626;23.200;2023-04-25T05:52:53;168135.16;;;10.97;100.00
1776;BME280;885;42.626;23.200;2023-04-25T05:55:19;168172.41;;;11.10;100.00
1776;BME280;885;42.626;23.200;2023-04-25T05:57:47;168182.09;;;11.14;100.00
1776;BME280;885;42.626;23.200;2023-04-25T06:00:15;168159.97;;;11.06;100.00
1776;BME280;885;42.626;23.200;2023-04-25T06:02:42;168241.41;;;11.36;100.00
1776;BME280;885;42.626;23.200;2023-04-25T06:05:09;168264.84;;;11.44;100.00
1776;BME280;885;42.626;23.200;2023-04-25T06:07:36;168267.66;;;11.45;100.00
1776;BME280;885;42.626;23.200;2023-04-25T06:10:03;168144.81;;;11.00;100.00
1776;BME280;885;42.626;23.200;2023-04-25T06:12:31;168177.91;;;11.12;100.00
1776;BME280;885;42.626;23.200;2023-04-25T06:14:59;168242.78;;;11.36;100.00
1776;BME280;885;42.626;23.200;2023-04-25T06:17:26;168280.06;;;11.50;100.00
1776;BME280;885;42.626;23.200;2023-04-25T06:19:53;168267.66;;;11.45;100.00
1776;BME280;885;42.626;23.200;2023-04-25T06:22:20;168296.63;;;11.56;100.00
1776;BME280;885;42.626;23.200;2023-04-25T06:24:46;168249.69;;;11.39;100.00
1776;BME280;885;42.626;23.200;2023-04-25T06:27:13;168292.44;;;11.54;100.00
1776;BME280;885;42.626;23.200;2023-04-25T06:29:40;168300.75;;;11.57;100.00
1776;BME280;885;42.626;23.200;2023-04-25T06:32:08;168286.94;;;11.52;100.00
1776;BME280;885;42.626;23.200;2023-04-25T06:34:35;168335.31;;;11.70;100.00
1776;BME280;885;42.626;23.200;2023-04-25T06:37:02;168503.78;;;12.31;99.85
1776;BME280;885;42.626;23.200;2023-04-25T06:39:29;168484.44;;;12.24;96.22
1776;BME280;885;42.626;23.200;2023-04-25T06:41:58;168640.50;;;12.81;97.43
1776;BME280;885;42.626;23.200;2023-04-25T06:44:24;168683.31;;;12.97;91.19
1776;BME280;885;42.626;23.200;2023-04-25T06:46:51;168600.44;;;12.66;92.11
1776;BME280;885;42.626;23.200;2023-04-25T06:49:19;168589.41;;;12.62;94.34
1776;BME280;885;42.626;23.200;2023-04-25T06:51:46;168600.44;;;12.66;96.27
1776;BME280;885;42.626;23.200;2023-04-25T06:54:13;168578.34;;;12.58;94.29
1776;BME280;885;42.626;23.200;2023-04-25T06:56:40;168451.28;;;12.12;96.45
1776;BME280;885;42.626;23.200;2023-04-25T06:59:07;168367.03;;;11.81;99.53
1776;BME280;885;42.626;23.200;2023-04-25T07:01:34;168390.53;;;11.90;100.00
1776;BME280;885;42.626;23.200;2023-04-25T07:04:01;168454.03;;;12.13;99.50
1776;BME280;885;42.626;23.200;2023-04-25T07:06:29;168443.00;;;12.09;98.29
1776;BME280;885;42.626;23.200;2023-04-25T07:08:56;168429.22;;;12.04;100.00
1776;BME280;885;42.626;23.200;2023-04-25T07:11:23;168418.16;;;12.00;99.22
1776;BME280;885;42.626;23.200;2023-04-25T07:13:50;168437.47;;;12.07;99.17
1776;BME280;885;42.626;23.200;2023-04-25T07:16:17;168391.91;;;11.90;100.00
1776;BME280;885;42.626;23.200;2023-04-25T07:18:43;168415.38;;;11.99;100.00
1776;BME280;885;42.626;23.200;2023-04-25T07:21:11;168506.50;;;12.32;99.89
1776;BME280;885;42.626;23.200;2023-04-25T07:23:39;168448.50;;;12.11;99.11
1776;BME280;885;42.626;23.200;2023-04-25T07:26:06;168494.06;;;12.28;98.66
1776;BME280;885;42.626;23.200;2023-04-25T07:28:33;168532.78;;;12.42;97.62
1776;BME280;885;42.626;23.200;2023-04-25T07:30:59;168564.53;;;12.53;96.79
1776;BME280;885;42.626;23.200;2023-04-25T07:33:27;168512.03;;;12.34;97.12
1776;BME280;885;42.626;23.200;2023-04-25T07:35:54;168593.53;;;12.64;97.05
1776;BME280;885;42.626;23.200;2023-04-25T07:38:21;168576.97;;;12.58;95.16
1776;BME280;885;42.626;23.200;2023-04-25T07:40:49;168594.94;;;12.64;94.92
1776;BME280;885;42.626;23.200;2023-04-25T07:43:16;168669.53;;;12.92;93.97
1776;BME280;885;42.626;23.200;2023-04-25T07:45:43;168650.16;;;12.85;90.80
1776;BME280;885;42.626;23.200;2023-04-25T07:48:09;168719.31;;;13.10;89.76
1776;BME280;885;42.626;23.200;2023-04-25T07:50:36;168715.16;;;13.08;91.20
1776;BME280;885;42.626;23.200;2023-04-25T07:53:03;168706.84;;;13.05;91.38
1776;BME280;885;42.626;23.200;2023-04-25T07:55:30;168727.63;;;13.13;89.40
1776;BME280;885;42.626;23.200;2023-04-25T07:57:58;168798.06;;;13.38;91.76
1776;BME280;885;42.626;23.200;2023-04-25T08:00:25;168846.47;;;13.56;88.89
1776;BME280;885;42.626;23.200;2023-04-25T08:02:51;168897.59;;;13.75;86.74
1776;BME280;885;42.626;23.200;2023-04-25T08:05:18;168915.56;;;13.81;84.95
1776;BME280;885;42.626;23.200;2023-04-25T08:07:45;168952.94;;;13.95;84.95
1776;BME280;885;42.626;23.200;2023-04-25T08:10:12;168990.25;;;14.08;82.81
1776;BME280;885;42.626;23.200;2023-04-25T08:12:38;169117.53;;;14.55;80.64
1776;BME280;885;42.626;23.200;2023-04-25T08:15:08;169150.72;;;14.67;79.73
1776;BME280;885;42.626;23.200;2023-04-25T08:17:35;169152.13;;;14.67;79.97
1776;BME280;885;42.626;23.200;2023-04-25T08:20:04;169139.66;;;14.63;83.08
1776;BME280;885;42.626;23.200;2023-04-25T08:22:31;169154.84;;;14.68;82.72
1776;BME280;885;42.626;23.200;2023-04-25T08:24:59;169172.84;;;14.75;81.89
1776;BME280;885;42.626;23.200;2023-04-25T08:27:26;169257.28;;;15.05;81.67
1776;BME280;885;42.626;23.200;2023-04-25T08:29:52;169305.69;;;15.23;81.69
1776;BME280;885;42.626;23.200;2023-04-25T08:32:20;169370.81;;;15.47;82.37
1776;BME280;885;42.626;23.200;2023-04-25T08:34:47;169045.59;;;14.28;78.67
1776;BME280;885;42.626;23.200;2023-04-25T08:37:14;169255.88;;;15.05;81.64
1776;BME280;885;42.626;23.200;2023-04-25T08:39:41;169361.13;;;15.43;76.65
1776;BME280;885;42.626;23.200;2023-04-25T08:42:08;169300.16;;;15.21;76.06
1776;BME280;885;42.626;23.200;2023-04-25T08:44:36;169359.75;;;15.43;76.24
1776;BME280;885;42.626;23.200;2023-04-25T08:47:03;169272.47;;;15.11;75.73
1776;BME280;885;42.626;23.200;2023-04-25T08:49:33;169383.28;;;15.51;76.59
1776;BME280;885;42.626;23.200;2023-04-25T08:52:02;169402.63;;;15.58;70.71
1776;BME280;885;42.626;23.200;2023-04-25T08:54:31;169480.16;;;15.86;68.50
1776;BME280;885;42.626;23.200;2023-04-25T08:57:01;169521.72;;;16.02;69.31
1776;BME280;885;42.626;23.200;2023-04-25T08:59:30;169539.72;;;16.08;69.75
1776;BME280;885;42.626;23.200;2023-04-25T09:01:57;169535.53;;;16.07;68.94
1776;BME280;885;42.626;23.200;2023-04-25T09:04:24;169499.56;;;15.94;66.61
1776;BME280;885;42.626;23.200;2023-04-25T09:06:52;169482.97;;;15.87;69.41
1776;BME280;885;42.626;23.200;2023-04-25T09:09:19;169491.25;;;15.90;69.87
1776;BME280;885;42.626;23.200;2023-04-25T09:11:46;169470.50;;;15.83;73.52
1776;BME280;885;42.626;23.200;2023-04-25T09:14:14;169603.44;;;16.31;77.30
1776;BME280;885;42.626;23.200;2023-04-25T09:17:01;169543.88;;;16.10;74.40
1776;BME280;885;42.626;23.200;2023-04-25T09:19:29;169545.25;;;16.10;77.03
1776;BME280;885;42.626;23.200;2023-04-25T09:22:00;169460.75;;;15.79;77.44
1776;BME280;885;42.626;23.200;2023-04-25T09:24:32;169275.28;;;15.12;81.19
1776;BME280;885;42.626;23.200;2023-04-25T09:26:59;169146.59;;;14.65;87.55
1776;BME280;885;42.626;23.200;2023-04-25T09:29:30;169053.91;;;14.31;83.79
1776;BME280;885;42.626;23.200;2023-04-25T09:32:16;169055.31;;;14.32;89.74
1776;BME280;885;42.626;23.200;2023-04-25T09:34:46;169076.03;;;14.40;93.53
1776;BME280;885;42.626;23.200;2023-04-25T09:37:19;169167.31;;;14.73;99.21
1776;BME280;885;42.626;23.200;2023-04-25T09:39:47;169109.22;;;14.52;93.64
1776;BME280;885;42.626;23.200;2023-04-25T09:42:14;169092.63;;;14.46;96.27
1776;BME280;885;42.626;23.200;2023-04-25T09:44:43;169165.97;;;14.72;94.19
1776;BME280;885;42.626;23.200;2023-04-25T09:47:11;169268.34;;;15.09;96.31
1776;BME280;885;42.626;23.200;2023-04-25T09:49:40;169210.22;;;14.88;80.48
1776;BME280;885;42.626;23.200;2023-04-25T09:52:07;169172.84;;;14.75;79.67
1776;BME280;885;42.626;23.200;2023-04-25T09:54:36;169136.91;;;14.62;82.24
1776;BME280;885;42.626;23.200;2023-04-25T09:57:08;169109.22;;;14.52;76.13
1776;BME280;885;42.626;23.200;2023-04-25T09:59:39;169082.94;;;14.42;77.48
1776;BME280;885;42.626;23.200;2023-04-25T10:02:07;169087.09;;;14.44;76.12
1776;BME280;885;42.626;23.200;2023-04-25T10:04:35;169026.19;;;14.21;77.69
1776;BME280;885;42.626;23.200;2023-04-25T10:07:05;169020.69;;;14.19;77.39
1776;BME280;885;42.626;23.200;2023-04-25T10:09:33;168999.91;;;14.12;77.83
1776;BME280;885;42.626;23.200;2023-04-25T10:12:02;169120.31;;;14.56;81.87
1776;BME280;885;42.626;23.200;2023-04-25T10:14:29;169178.38;;;14.77;79.13
1776;BME280;885;42.626;23.200;2023-04-25T10:16:57;169273.88;;;15.11;74.21
1776;BME280;885;42.626;23.200;2023-04-25T10:19:24;169399.88;;;15.57;75.98
1776;BME280;885;42.626;23.200;2023-04-25T10:21:54;169384.66;;;15.52;71.76
1776;BME280;885;42.626;23.200;2023-04-25T10:24:22;169356.88;;;15.42;74.25
1776;BME280;885;42.626;23.200;2023-04-25T10:26:50;169347.22;;;15.38;68.93
1776;BME280;885;42.626;23.200;2023-04-25T10:29:23;169297.41;;;15.20;71.70
1776;BME280;885;42.626;23.200;2023-04-25T10:31:50;169226.69;;;14.95;67.29
1776;BME280;885;42.626;23.200;2023-04-25T10:34:17;169258.50;;;15.07;68.60
1776;BME280;885;42.626;23.200;2023-04-25T10:36:49;169305.69;;;15.23;72.80
1776;BME280;885;42.626;23.200;2023-04-25T10:39:21;168775.47;;;14.67;68.22
1776;BME280;885;42.626;23.200;2023-04-25T10:41:53;169179.66;;;14.78;74.41
1776;BME280;885;42.626;23.200;2023-04-25T10:44:20;169181.00;;;14.79;70.36
1776;BME280;885;42.626;23.200;2023-04-25T10:46:48;169045.47;;;14.29;77.28
1776;BME280;885;42.626;23.200;2023-04-25T10:49:32;169098.03;;;14.49;78.67
1776;BME280;885;42.626;23.200;2023-04-25T10:52:15;169189.31;;;14.82;74.66
1776;BME280;885;42.626;23.200;2023-04-25T10:54:46;169401.28;;;15.58;76.04
1776;BME280;885;42.626;23.200;2023-04-25T10:57:30;169259.91;;;15.07;73.88
1776;BME280;885;42.626;23.200;2023-04-25T10:59:59;168364.59;;;14.54;71.83
1776;BME280;885;42.626;23.200;2023-04-25T11:02:28;168251.69;;;14.12;74.64
1776;BME280;885;42.626;23.200;2023-04-25T11:04:54;168772.69;;;14.66;72.21
1776;BME280;885;42.626;23.200;2023-04-25T11:07:28;168906.63;;;15.15;70.31
1776;BME280;885;42.626;23.200;2023-04-25T11:10:02;169432.97;;;15.70;70.83
1776;BME280;885;42.626;23.200;2023-04-25T11:12:30;169589.44;;;16.27;67.54
1776;BME280;885;42.626;23.200;2023-04-25T11:15:00;169784.78;;;16.98;65.31
1776;BME280;885;42.626;23.200;2023-04-25T11:17:29;169991.34;;;17.73;61.71
1776;BME280;885;42.626;23.200;2023-04-25T11:19:56;169625.38;;;17.77;62.03
1776;BME280;885;42.626;23.200;2023-04-25T11:22:23;168062.78;;;17.55;57.86
1776;BME280;885;42.626;23.200;2023-04-25T11:24:50;167321.63;;;17.58;58.04
1776;BME280;885;42.626;23.200;2023-04-25T11:27:20;167241.09;;;17.28;61.55
1776;BME280;885;42.626;23.200;2023-04-25T11:29:47;165945.28;;;16.65;63.30
1776;BME280;885;42.626;23.200;2023-04-25T11:32:15;166204.56;;;16.22;67.91
1776;BME280;885;42.626;23.200;2023-04-25T11:34:44;166117.75;;;15.90;69.03
1776;BME280;885;42.626;23.200;2023-04-25T11:37:11;166810.38;;;15.69;74.54
1776;BME280;885;42.626;23.200;2023-04-25T11:39:42;166471.31;;;14.44;81.72
1776;BME280;885;42.626;23.200;2023-04-25T11:42:09;168551.91;;;13.86;94.54
1776;BME280;885;42.626;23.200;2023-04-25T11:44:37;168570.06;;;12.55;98.30
1776;BME280;885;42.626;23.200;2023-04-25T11:47:04;168449.91;;;12.12;100.00
1776;BME280;885;42.626;23.200;2023-04-25T11:49:32;168217.94;;;11.27;100.00
1776;BME280;885;42.626;23.200;2023-04-25T11:52:01;168233.16;;;11.33;100.00
1776;BME280;885;42.626;23.200;2023-04-25T11:54:28;168390.53;;;11.90;100.00
1776;BME280;885;42.626;23.200;2023-04-25T11:56:55;168459.56;;;12.15;100.00
1776;BME280;885;42.626;23.200;2023-04-25T11:59:24;168462.34;;;12.16;100.00
1776;BME280;885;42.626;23.200;2023-04-25T12:01:52;168564.53;;;12.53;100.00
1776;BME280;885;42.626;23.200;2023-04-25T12:04:20;168570.06;;;12.55;98.40
1776;BME280;885;42.626;23.200;2023-04-25T12:06:49;168647.44;;;12.84;97.09
1776;BME280;885;42.626;23.200;2023-04-25T12:09:18;168787.00;;;13.34;100.00
1776;BME280;885;42.626;23.200;2023-04-25T12:11:48;168876.88;;;13.67;95.17
1776;BME280;885;42.626;23.200;2023-04-25T12:14:21;168827.09;;;13.49;93.66
1776;BME280;885;42.626;23.200;2023-04-25T12:16:49;168800.84;;;13.39;87.77
1776;BME280;885;42.626;23.200;2023-04-25T12:19:18;168946.00;;;13.92;91.37
1776;BME280;885;42.626;23.200;2023-04-25T12:21:45;169100.94;;;14.49;94.20
1776;BME280;885;42.626;23.200;2023-04-25T12:24:14;169134.13;;;14.61;91.05
1776;BME280;885;42.626;23.200;2023-04-25T12:26:53;169289.09;;;15.17;92.19
1776;BME280;885;42.626;23.200;2023-04-25T12:29:21;169330.63;;;15.32;81.23
1776;BME280;885;42.626;23.200;2023-04-25T12:31:49;169437.22;;;15.71;82.53
1776;BME280;885;42.626;23.200;2023-04-25T12:34:16;169532.78;;;16.06;79.32
1776;BME280;885;42.626;23.200;2023-04-25T12:36:43;169699.03;;;16.66;80.32
1776;BME280;885;42.626;23.200;2023-04-25T12:56:34;169554.94;;;16.14;68.85
1776;BME280;885;42.626;23.200;2023-04-25T12:59:01;169441.41;;;15.72;72.28
1776;BME280;885;42.626;23.200;2023-04-25T13:01:29;169358.28;;;15.42;75.13
1776;BME280;885;42.626;23.200;2023-04-25T13:03:57;169283.56;;;15.15;83.07
1776;BME280;885;42.626;23.200;2023-04-25T13:06:24;169150.72;;;14.67;84.66
1776;BME280;885;42.626;23.200;2023-04-25T13:08:51;168947.41;;;13.93;85.84
1776;BME280;885;42.626;23.200;2023-04-25T13:11:18;168889.34;;;13.72;88.55
1776;BME280;885;42.626;23.200;2023-04-25T13:13:46;168757.97;;;13.24;90.13
1776;BME280;885;42.626;23.200;2023-04-25T13:16:13;168628.06;;;12.76;93.04
1776;BME280;885;42.626;23.200;2023-04-25T13:18:40;168632.19;;;12.78;93.58
1776;BME280;885;42.626;23.200;2023-04-25T13:21:09;168565.91;;;12.54;98.50
1776;BME280;885;42.626;23.200;2023-04-25T13:23:35;168553.47;;;12.49;99.34
1776;BME280;885;42.626;23.200;2023-04-25T13:26:02;168376.75;;;11.85;98.50